Аэропорт: Платов. Ростов-на-Дону

ICAO: URRP

METAR:
2024-04-22 23:00:00
URRP 222300Z 12003MPS 9999 FEW/// SCT056CB 14/09 Q1018 RETS R23/CLRD70 TEMPO VRB09G15MPS 3000 -TSRA BKN020CB RMK QFE756/1008
TAF:
2024-04-22 22:55:00
TAF URRP 222255Z 2300/2324 23003G12MPS 9999 SCT016 SCT030CB 
  TEMPO 2300/2306 15003G12MPS 6000 -TSRA FEW007 BKN020CB 
  TEMPO 2306/2321 27006G13MPS